Time;durP1;ratioP1;P1;durP2;ratioP2;P2;SDS_P1;SDS_P2;PMS_P1;PMS_P2;Temp;Humidity;BMP_temperature;BMP_pressure;BME280_temperature;BME280_humidity;BME280_pressure;Samples;Min_cycle;Max_cycle;Signal;HPM_P1;HPM_P2
2022/02/12 00:01:34;;;;;;;2.13;1.10;;;9.00;71.40;;;;;;20871011;28;20106;-80
2022/02/12 00:11:35;;;;;;;1.98;1.08;;;9.00;71.30;;;;;;20892031;28;20455;-80
2022/02/12 00:21:35;;;;;;;3.38;1.27;;;9.00;71.30;;;;;;20810178;28;20517;-80
2022/02/12 00:31:36;;;;;;;3.15;0.98;;;9.00;71.30;;;;;;20856849;28;20076;-81
2022/02/12 00:41:36;;;;;;;2.72;1.10;;;9.00;71.20;;;;;;20890947;28;20029;-80
2022/02/12 00:51:37;;;;;;;2.80;1.40;;;9.00;71.10;;;;;;20873548;28;20072;-80
2022/02/12 01:01:37;;;;;;;1.48;0.57;;;8.90;71.00;;;;;;20803054;28;20037;-80
2022/02/12 01:11:38;;;;;;;1.95;0.73;;;8.90;70.90;;;;;;20824693;28;20124;-80
2022/02/12 01:21:39;;;;;;;2.63;0.95;;;8.90;70.90;;;;;;20792012;28;20076;-80
2022/02/12 01:31:39;;;;;;;2.83;1.30;;;8.90;70.80;;;;;;20802928;28;20045;-79
2022/02/12 01:41:40;;;;;;;1.92;1.05;;;8.90;70.80;;;;;;20823038;28;20049;-79
2022/02/12 01:51:40;;;;;;;4.15;1.13;;;8.90;70.70;;;;;;20806074;28;20042;-79
2022/02/12 02:01:41;;;;;;;1.63;0.60;;;8.90;70.70;;;;;;20805303;28;20061;-79
2022/02/12 02:11:42;;;;;;;2.33;1.08;;;8.90;70.70;;;;;;20814184;28;20025;-79
2022/02/12 02:21:42;;;;;;;1.43;0.63;;;8.90;70.60;;;;;;20975090;28;20032;-79
2022/02/12 02:31:43;;;;;;;3.45;1.30;;;8.90;70.60;;;;;;20985252;28;20736;-79
2022/02/12 02:41:44;;;;;;;2.15;0.88;;;8.80;70.60;;;;;;20999940;28;20036;-80
2022/02/12 03:02:04;;;;;;;4.93;1.08;;;8.80;70.60;;;;;;20984901;28;20454;-79
2022/02/12 03:12:05;;;;;;;2.17;1.27;;;8.80;70.60;;;;;;20981360;28;20064;-79
2022/02/12 03:22:06;;;;;;;3.55;1.02;;;8.80;70.60;;;;;;20964266;28;20035;-79
2022/02/12 03:32:06;;;;;;;4.07;0.98;;;8.80;70.50;;;;;;20962679;28;20451;-79
2022/02/12 03:42:07;;;;;;;2.65;0.73;;;8.80;70.50;;;;;;20978501;28;20060;-79
2022/02/12 03:52:08;;;;;;;3.13;1.05;;;8.80;70.50;;;;;;20960533;28;20482;-78
2022/02/12 04:02:08;;;;;;;6.00;1.40;;;8.80;70.50;;;;;;20961010;28;20040;-78
2022/02/12 04:12:09;;;;;;;3.50;1.10;;;8.80;70.40;;;;;;20976693;28;20047;-79
2022/02/12 04:22:10;;;;;;;1.45;0.77;;;8.70;70.30;;;;;;20992577;28;20043;-78
2022/02/12 04:32:10;;;;;;;3.40;1.47;;;8.70;70.30;;;;;;20941929;28;20051;-79
2022/02/12 04:42:16;;;;;;;3.90;1.27;;;8.70;70.30;;;;;;20974248;28;20310;-78
2022/02/12 04:52:18;;;;;;;4.13;0.95;;;8.70;70.20;;;;;;20942759;28;20039;-78
2022/02/12 05:02:18;;;;;;;1.52;0.88;;;8.70;70.20;;;;;;20956981;28;20044;-79
2022/02/12 05:12:19;;;;;;;3.30;1.00;;;8.70;70.20;;;;;;20990032;28;20032;-79
2022/02/12 05:22:20;;;;;;;2.78;1.17;;;8.70;70.10;;;;;;20973485;28;20052;-79
2022/02/12 05:32:20;;;;;;;2.35;1.13;;;8.70;70.10;;;;;;20955785;28;20044;-78
2022/02/12 05:42:21;;;;;;;3.28;0.85;;;8.70;70.00;;;;;;20989103;28;20036;-78
2022/02/12 05:52:21;;;;;;;2.08;1.45;;;8.70;70.00;;;;;;20955467;28;20060;-78
2022/02/12 06:02:22;;;;;;;4.13;1.60;;;8.70;69.90;;;;;;20971412;28;20089;-78
2022/02/12 06:12:22;;;;;;;4.05;1.13;;;8.80;69.60;;;;;;20973287;28;20032;-78
2022/02/12 06:22:27;;;;;;;2.40;0.90;;;8.90;69.20;;;;;;20985407;28;20071;-78
2022/02/12 06:32:27;;;;;;;3.50;0.93;;;9.00;68.80;;;;;;20969012;28;20522;-78
2022/02/12 06:42:28;;;;;;;2.93;0.90;;;9.00;68.50;;;;;;20951284;28;20036;-78
2022/02/12 06:52:28;;;;;;;4.25;1.30;;;9.10;68.60;;;;;;20949867;28;20326;-78
2022/02/12 07:02:29;;;;;;;4.18;0.90;;;8.90;68.60;;;;;;20981998;28;20109;-78
2022/02/12 07:12:31;;;;;;;3.97;1.35;;;8.90;68.70;;;;;;20997784;28;20033;-78
2022/02/12 07:22:31;;;;;;;2.20;0.90;;;8.80;68.70;;;;;;20968127;28;20110;-78
2022/02/12 07:32:32;;;;;;;1.85;1.13;;;8.80;68.80;;;;;;20996334;28;20068;-77
2022/02/12 07:42:33;;;;;;;6.57;1.08;;;8.80;68.90;;;;;;20995582;28;20036;-77
2022/02/12 07:52:34;;;;;;;3.13;1.27;;;8.80;68.90;;;;;;20886308;28;20033;-77
2022/02/12 08:02:35;;;;;;;3.00;1.20;;;8.90;68.90;;;;;;20861494;28;20041;-75
2022/02/12 08:12:35;;;;;;;7.53;1.63;;;8.90;69.00;;;;;;20877481;28;20386;-77
2022/02/12 08:22:36;;;;;;;2.97;1.55;;;8.90;69.10;;;;;;20876999;28;20029;-75
2022/02/12 08:32:41;;;;;;;4.80;1.20;;;8.90;69.30;;;;;;20874670;28;20115;-74
2022/02/12 08:42:42;;;;;;;3.83;0.82;;;8.80;69.50;;;;;;20891768;28;20119;-78
2022/02/12 08:52:43;;;;;;;4.85;1.40;;;8.80;69.50;;;;;;20891140;28;20465;-79
2022/02/12 09:02:45;;;;;;;2.10;0.90;;;8.80;69.60;;;;;;20890951;28;20037;-76
2022/02/12 09:12:46;;;;;;;3.85;0.80;;;8.80;69.70;;;;;;20890057;28;20059;-76
2022/02/12 09:22:47;;;;;;;6.07;1.20;;;8.80;69.80;;;;;;20889274;28;20065;-77
2022/02/12 09:32:50;;;;;;;1.95;1.75;;;8.80;69.80;;;;;;20871329;28;20049;-78
2022/02/12 09:42:50;;;;;;;1.98;0.82;;;8.80;69.80;;;;;;20869718;28;20368;-78
2022/02/12 09:52:53;;;;;;;1.70;0.80;;;8.80;69.90;;;;;;20915183;28;20033;-77
2022/02/12 10:02:54;;;;;;;1.80;0.60;;;8.80;70.00;;;;;;20904113;28;20372;-77
2022/02/12 10:13:12;;;;;;;0.75;0.47;;;8.80;69.90;;;;;;20820729;28;20056;-76
2022/02/12 10:23:17;;;;;;;4.50;0.98;;;8.70;69.80;;;;;;20837039;28;20037;-77
2022/02/12 10:33:18;;;;;;;10.90;1.65;;;8.80;69.80;;;;;;20802950;28;20045;-77
2022/02/12 10:43:18;;;;;;;4.40;1.52;;;8.90;70.10;;;;;;20819737;28;20471;-77
2022/02/12 10:53:19;;;;;;;6.95;1.83;;;9.10;70.30;;;;;;20811911;28;20037;-78
2022/02/12 11:03:20;;;;;;;5.22;1.63;;;9.10;70.50;;;;;;20916012;28;20126;-76
2022/02/12 11:13:21;;;;;;;4.28;1.60;;;9.10;70.80;;;;;;20913850;28;20040;-74
2022/02/12 11:23:22;;;;;;;3.15;1.30;;;9.00;70.70;;;;;;20897768;28;20060;-76
2022/02/12 11:33:23;;;;;;;3.13;1.05;;;9.00;70.70;;;;;;20916443;28;20128;-72
2022/02/12 11:43:35;;;;;;;2.65;1.10;;;9.00;70.60;;;;;;20864545;28;20037;-74
2022/02/12 11:53:54;;;;;;;6.47;1.70;;;9.00;70.60;;;;;;20893227;28;20040;-74
2022/02/12 12:04:06;;;;;;;5.30;1.17;;;9.00;70.70;;;;;;20877863;28;20044;-75
2022/02/12 12:14:22;;;;;;;4.70;1.85;;;9.00;70.70;;;;;;20892604;28;20047;-79
2022/02/12 12:24:22;;;;;;;6.47;1.33;;;8.90;70.60;;;;;;20909901;28;20090;-76
2022/02/12 12:34:23;;;;;;;2.30;0.90;;;8.90;70.50;;;;;;20891383;28;20132;-81
2022/02/12 12:44:23;;;;;;;5.78;1.52;;;8.90;70.40;;;;;;20888835;28;20045;-80
2022/02/12 12:54:31;;;;;;;3.00;1.17;;;9.00;70.30;;;;;;20908185;28;20429;-73
2022/02/12 13:04:36;;;;;;;8.45;1.48;;;9.00;69.90;;;;;;20903993;28;20045;-74
2022/02/12 13:14:44;;;;;;;4.70;1.20;;;9.00;69.90;;;;;;20873165;28;20037;-75
2022/02/12 13:24:51;;;;;;;3.60;1.20;;;9.00;70.00;;;;;;20880463;28;20521;-76
2022/02/12 13:34:52;;;;;;;;;;;9.00;70.10;;;;;;20872310;28;20086;-76
2022/02/12 13:45:02;;;;;;;1.13;0.75;;;8.90;70.10;;;;;;20921395;28;20383;-75
2022/02/12 13:55:06;;;;;;;1.48;0.55;;;8.90;70.30;;;;;;20920008;28;20029;-76
2022/02/12 14:05:07;;;;;;;1.75;0.70;;;8.90;70.30;;;;;;20885659;28;20483;-76
2022/02/12 14:15:08;;;;;;;1.83;0.75;;;8.80;70.00;;;;;;20901751;28;20043;-76
2022/02/12 14:25:09;;;;;;;7.18;0.90;;;8.90;69.80;;;;;;20895668;28;20037;-72
2022/02/12 14:35:10;;;;;;;3.47;0.68;;;8.90;69.90;;;;;;20913811;28;20459;-73
2022/02/12 14:45:11;;;;;;;3.73;1.17;;;8.80;69.90;;;;;;20900110;28;20039;-75
2022/02/12 14:55:12;;;;;;;1.88;0.52;;;9.00;70.10;;;;;;20913086;28;20287;-75
2022/02/12 15:05:13;;;;;;;1.38;0.68;;;8.90;70.10;;;;;;20912885;28;20040;-76
2022/02/12 15:15:13;;;;;;;1.38;0.98;;;8.90;70.20;;;;;;20892417;28;20128;-75
2022/02/12 15:25:14;;;;;;;0.77;0.53;;;8.90;70.30;;;;;;20912819;28;20052;-75
2022/02/12 15:35:14;;;;;;;2.45;0.80;;;8.90;70.10;;;;;;20895987;28;20394;-76
2022/02/12 15:45:15;;;;;;;1.98;0.80;;;8.90;69.60;;;;;;20911197;28;20029;-75
2022/02/12 15:55:15;;;;;;;4.95;0.93;;;8.90;69.00;;;;;;20910685;28;20040;-73
2022/02/12 16:05:16;;;;;;;3.20;0.57;;;8.90;69.00;;;;;;20892736;28;20126;-72
2022/02/12 16:15:17;;;;;;;5.90;1.05;;;9.00;69.10;;;;;;20859443;28;20033;-75
2022/02/12 16:25:17;;;;;;;2.85;0.85;;;8.90;69.60;;;;;;20892140;28;20040;-77
2022/02/12 16:35:18;;;;;;;7.90;0.90;;;9.00;69.00;;;;;;20892600;28;20303;-75
2022/02/12 16:45:20;;;;;;;6.57;1.00;;;9.10;68.80;;;;;;20865188;28;20037;-76
2022/02/12 16:55:26;;;;;;;2.78;0.60;;;9.10;68.70;;;;;;20886543;28;20446;-74
2022/02/12 17:05:29;;;;;;;2.65;1.00;;;9.00;68.70;;;;;;20853271;28;20117;-74
2022/02/12 17:15:30;;;;;;;2.47;0.60;;;9.00;68.70;;;;;;20889500;28;20094;-77
2022/02/12 17:25:30;;;;;;;3.47;0.85;;;9.00;68.90;;;;;;20888942;28;20041;-80
2022/02/12 17:35:31;;;;;;;3.22;0.63;;;8.90;68.90;;;;;;20856230;28;20065;-75
2022/02/12 17:45:32;;;;;;;2.25;1.00;;;8.90;69.00;;;;;;20937496;28;20038;-75
2022/02/12 17:55:34;;;;;;;3.55;0.93;;;8.80;69.00;;;;;;20873567;28;20432;-78
2022/02/12 18:05:36;;;;;;;1.95;0.45;;;8.80;69.10;;;;;;20874661;28;20468;-75
2022/02/12 18:15:37;;;;;;;3.65;0.90;;;8.80;69.10;;;;;;20838265;28;20452;-74
2022/02/12 18:25:38;;;;;;;1.42;0.85;;;8.80;69.10;;;;;;20823303;28;20029;-74
2022/02/12 18:35:38;;;;;;;2.78;1.27;;;8.80;69.10;;;;;;20804451;28;20041;-74
2022/02/12 18:45:39;;;;;;;3.85;0.90;;;8.80;69.10;;;;;;20805443;28;20030;-74
2022/02/12 18:55:39;;;;;;;2.90;0.80;;;8.80;69.20;;;;;;20905978;28;20033;-75
2022/02/12 19:05:40;;;;;;;1.05;0.63;;;8.70;69.20;;;;;;20982070;28;20056;-73
2022/02/12 19:15:40;;;;;;;1.45;0.80;;;8.70;69.20;;;;;;20983225;28;20024;-77
2022/02/12 19:25:41;;;;;;;2.07;1.10;;;8.70;69.30;;;;;;20949991;28;20098;-76
2022/02/12 19:35:45;;;;;;;1.33;0.67;;;8.70;69.30;;;;;;20999383;28;20303;-77
2022/02/12 19:45:45;;;;;;;1.38;0.60;;;8.60;69.30;;;;;;20899076;28;20349;-76
2022/02/12 19:55:46;;;;;;;1.98;0.90;;;8.60;69.30;;;;;;20882632;28;20037;-76
2022/02/12 20:05:47;;;;;;;2.65;0.80;;;8.60;69.30;;;;;;20913784;28;20079;-77
2022/02/12 20:15:52;;;;;;;2.58;0.70;;;8.60;69.40;;;;;;20881104;28;20379;-76
2022/02/12 20:25:52;;;;;;;1.77;0.80;;;8.60;69.40;;;;;;20872240;28;20037;-75
2022/02/12 20:35:53;;;;;;;2.23;0.87;;;8.60;69.40;;;;;;21280305;22;20143;-78
2022/02/12 20:45:55;;;;;;;2.25;0.60;;;8.50;69.30;;;;;;20977715;28;20283;-75
2022/02/12 20:55:56;;;;;;;1.02;0.68;;;8.50;69.30;;;;;;20978564;28;20036;-75
2022/02/12 21:05:59;;;;;;;3.90;1.00;;;8.50;69.30;;;;;;20975068;28;20053;-76
2022/02/12 21:16:00;;;;;;;0.98;0.60;;;8.60;69.40;;;;;;20994515;28;20078;-74
2022/02/12 21:26:01;;;;;;;2.08;0.60;;;8.50;69.30;;;;;;20977385;28;20037;-75
2022/02/12 21:36:03;;;;;;;1.08;0.50;;;8.50;69.40;;;;;;20942768;28;20039;-75
2022/02/12 21:46:03;;;;;;;1.30;0.80;;;8.50;69.30;;;;;;20983023;28;20029;-75
2022/02/12 21:56:06;;;;;;;1.80;0.67;;;8.50;69.30;;;;;;20974806;28;20482;-75
2022/02/12 22:06:10;;;;;;;2.00;0.73;;;8.50;69.30;;;;;;20974077;28;20290;-75
2022/02/12 22:16:12;;;;;;;0.90;0.52;;;8.50;69.30;;;;;;20974148;28;20032;-75
2022/02/12 22:26:12;;;;;;;1.58;0.45;;;8.50;69.30;;;;;;20973006;28;20033;-75
2022/02/12 22:36:14;;;;;;;2.88;0.82;;;8.40;69.20;;;;;;20956345;28;20398;-75
2022/02/12 22:46:15;;;;;;;1.48;0.95;;;8.50;69.20;;;;;;20972031;28;20390;-75
2022/02/12 22:56:17;;;;;;;1.10;0.57;;;8.40;69.20;;;;;;20970212;28;20039;-75
2022/02/12 23:06:17;;;;;;;3.38;1.52;;;8.40;69.10;;;;;;20986065;28;20298;-75
2022/02/12 23:16:21;;;;;;;1.60;0.88;;;8.40;69.10;;;;;;20969387;28;20036;-74
2022/02/12 23:26:21;;;;;;;2.25;1.25;;;8.40;69.10;;;;;;20968095;28;20478;-76
2022/02/12 23:36:22;;;;;;;2.40;1.10;;;8.40;69.10;;;;;;20967343;28;20054;-75
2022/02/12 23:46:23;;;;;;;1.85;0.68;;;8.40;69.10;;;;;;20966655;28;20052;-75
2022/02/12 23:56:23;;;;;;;1.85;1.05;;;8.30;69.00;;;;;;20965026;28;20127;-74
